createdAt,value
2022-08-02T00:00:03.129Z,1.75
2022-08-02T00:05:08.640Z,1.70
2022-08-02T00:10:13.031Z,2.15
2022-08-02T00:15:16.523Z,1.10
2022-08-02T00:20:21.160Z,1.23
2022-08-02T00:25:24.456Z,2.30
2022-08-02T00:30:27.526Z,2.42
2022-08-02T00:35:32.001Z,1.65
2022-08-02T00:40:35.344Z,1.45
2022-08-02T00:46:02.599Z,3.25
2022-08-02T00:51:05.863Z,1.65
2022-08-02T00:56:09.173Z,1.27
2022-08-02T01:01:12.682Z,3.05
2022-08-02T01:06:18.128Z,2.90
2022-08-02T01:11:21.351Z,2.08
2022-08-02T01:16:29.436Z,1.20
2022-08-02T01:21:48.839Z,2.70
2022-08-02T01:26:58.888Z,1.65
2022-08-02T01:32:10.819Z,1.50
2022-08-02T01:37:20.107Z,3.10
2022-08-02T01:42:25.807Z,2.17
2022-08-02T01:47:32.332Z,1.40
2022-08-02T01:52:40.050Z,1.92
2022-08-02T01:57:59.542Z,1.52
2022-08-02T02:03:08.385Z,2.47
2022-08-02T02:08:13.313Z,1.30
2022-08-02T02:13:19.696Z,3.10
2022-08-02T02:18:27.963Z,1.40
2022-08-02T02:23:32.774Z,1.83
2022-08-02T02:28:40.308Z,2.22
2022-08-02T02:33:51.153Z,2.55
2022-08-02T02:38:55.292Z,2.05
2022-08-02T02:44:02.551Z,1.58
2022-08-02T02:49:07.737Z,2.05
2022-08-02T02:54:32.904Z,2.72
2022-08-02T02:59:42.479Z,1.58
2022-08-02T03:04:58.081Z,1.65
2022-08-02T03:10:01.718Z,1.55
2022-08-02T03:15:09.450Z,1.42
2022-08-02T03:20:16.589Z,2.65
2022-08-02T03:25:20.163Z,2.40
2022-08-02T03:30:24.762Z,1.10
2022-08-02T03:35:29.537Z,2.08
2022-08-02T03:40:33.739Z,1.63
2022-08-02T03:45:38.247Z,2.28
2022-08-02T03:50:43.911Z,2.33
2022-08-02T03:55:47.410Z,1.98
2022-08-02T04:00:51.478Z,2.83
2022-08-02T04:06:00.910Z,3.05
2022-08-02T04:11:25.801Z,2.75
2022-08-02T04:16:40.239Z,1.40
2022-08-02T04:21:51.470Z,2.83
2022-08-02T04:27:06.714Z,2.10
2022-08-02T04:32:21.647Z,2.85
2022-08-02T04:37:27.277Z,1.30
2022-08-02T04:42:30.464Z,1.30
2022-08-02T04:48:02.627Z,1.83
2022-08-02T04:53:00.090Z,1.52
2022-08-02T04:58:06.766Z,1.80
2022-08-02T05:03:16.886Z,1.67
2022-08-02T05:08:21.332Z,3.17
2022-08-02T05:13:24.452Z,1.25
2022-08-02T05:18:28.634Z,1.65
2022-08-02T05:23:33.096Z,2.53
2022-08-02T05:28:36.718Z,1.67
2022-08-02T05:33:39.930Z,1.33
2022-08-02T05:38:49.740Z,2.63
2022-08-02T05:43:53.481Z,1.40
2022-08-02T05:48:56.665Z,4.15
2022-08-02T05:54:08.927Z,1.95
2022-08-02T05:59:18.995Z,1.73
2022-08-02T06:04:26.984Z,2.85
2022-08-02T06:09:32.510Z,2.70
2022-08-02T06:14:35.853Z,1.55
2022-08-02T06:19:52.250Z,7.57
2022-08-02T06:24:57.736Z,2.28
2022-08-02T06:30:01.215Z,2.78
2022-08-02T06:35:05.949Z,2.53
2022-08-02T06:40:19.978Z,2.03
2022-08-02T06:45:23.255Z,4.18
2022-08-02T06:50:26.528Z,4.35
2022-08-02T06:55:32.294Z,2.47
2022-08-02T07:00:46.576Z,2.78
2022-08-02T07:05:49.861Z,1.70
2022-08-02T07:10:56.484Z,3.05
2022-08-02T07:15:59.910Z,3.00
2022-08-02T07:21:06.226Z,2.58
2022-08-02T07:26:13.449Z,2.03
2022-08-02T07:31:16.608Z,2.25
2022-08-02T07:36:22.834Z,3.17
2022-08-02T07:41:27.567Z,7.82
2022-08-02T07:46:31.241Z,2.80
2022-08-02T07:51:35.887Z,1.90
2022-08-02T07:56:40.608Z,3.20
2022-08-02T08:01:46.018Z,2.13
2022-08-02T08:06:52.137Z,1.65
2022-08-02T08:11:56.689Z,2.78
2022-08-02T08:17:00.126Z,1.58
2022-08-02T08:22:03.951Z,1.58
2022-08-02T08:27:14.451Z,3.67
2022-08-02T08:32:18.813Z,2.28
2022-08-02T08:37:22.273Z,9.13
2022-08-02T08:42:27.582Z,6.22
2022-08-02T08:47:36.433Z,6.97
2022-08-02T08:52:44.372Z,3.92
2022-08-02T08:57:49.296Z,3.30
2022-08-02T09:02:52.826Z,2.75
2022-08-02T09:07:56.121Z,2.97
2022-08-02T09:13:37.592Z,2.08
2022-08-02T09:18:33.065Z,4.35
2022-08-02T09:23:38.377Z,3.08
2022-08-02T09:28:44.253Z,6.30
2022-08-02T09:33:52.850Z,3.85
2022-08-02T09:38:58.644Z,4.43
2022-08-02T09:44:06.900Z,2.55
2022-08-02T09:49:13.277Z,3.05
2022-08-02T09:54:18.871Z,2.10
2022-08-02T09:59:25.691Z,2.38
2022-08-02T10:04:31.452Z,2.38
2022-08-02T10:09:38.021Z,2.63
2022-08-02T10:14:50.594Z,13.13
2022-08-02T10:20:02.467Z,8.40
2022-08-02T10:25:09.159Z,8.30
2022-08-02T10:30:14.532Z,3.60
2022-08-02T10:35:25.648Z,3.25
2022-08-02T10:40:44.785Z,2.70
2022-08-02T10:45:52.444Z,2.67
2022-08-02T10:50:56.837Z,2.28
2022-08-02T10:56:01.963Z,2.13
2022-08-02T11:01:38.908Z,4.70
2022-08-02T11:07:07.775Z,4.43
2022-08-02T11:12:13.853Z,4.78
2022-08-02T11:17:20.178Z,4.43
2022-08-02T11:22:25.807Z,2.78
2022-08-02T11:27:31.214Z,4.35
2022-08-02T11:32:36.295Z,3.03
2022-08-02T11:37:41.329Z,2.47
2022-08-02T11:42:46.191Z,2.83
2022-08-02T11:47:52.601Z,3.25
2022-08-02T11:52:57.477Z,3.83
2022-08-02T11:58:03.020Z,2.30
2022-08-02T12:03:09.832Z,2.85
2022-08-02T12:08:12.928Z,4.22
2022-08-02T12:13:16.530Z,3.22
2022-08-02T12:18:39.690Z,3.75
2022-08-02T12:23:59.749Z,4.55
2022-08-02T12:29:04.259Z,1.90
2022-08-02T12:34:17.432Z,2.20
2022-08-02T12:39:20.448Z,2.38
2022-08-02T12:44:23.470Z,2.03
2022-08-02T12:49:28.248Z,3.35
2022-08-02T12:54:41.146Z,2.90
2022-08-02T12:59:45.667Z,1.90
2022-08-02T13:04:51.106Z,1.98
2022-08-02T13:10:03.053Z,5.63
2022-08-02T13:15:12.552Z,2.20
2022-08-02T13:20:32.470Z,2.00
2022-08-02T13:25:35.737Z,2.10
2022-08-02T13:30:39.619Z,2.53
2022-08-02T13:35:45.070Z,2.00
2022-08-02T13:41:04.823Z,2.25
2022-08-02T13:46:09.083Z,2.00
2022-08-02T13:51:14.942Z,2.17
2022-08-02T13:56:18.304Z,5.75
2022-08-02T14:01:21.506Z,4.97
2022-08-02T14:06:26.168Z,2.72
2022-08-02T14:11:31.085Z,2.50
2022-08-02T14:16:34.453Z,3.88
2022-08-02T14:21:47.183Z,4.07
2022-08-02T14:26:51.802Z,5.50
2022-08-02T14:31:55.032Z,3.42
2022-08-02T14:36:59.658Z,2.58
2022-08-02T14:42:02.843Z,4.20
2022-08-02T14:47:06.981Z,1.92
2022-08-02T14:52:13.405Z,2.40
2022-08-02T14:57:17.109Z,1.83
2022-08-02T15:02:20.309Z,1.85
2022-08-02T15:07:25.035Z,2.83
2022-08-02T15:12:28.277Z,1.83
2022-08-02T15:17:31.927Z,2.00
2022-08-02T15:22:36.695Z,1.20
2022-08-02T15:27:40.158Z,2.55
2022-08-02T15:32:53.337Z,1.75
2022-08-02T15:37:58.350Z,1.85
2022-08-02T15:43:02.015Z,2.67
2022-08-02T15:48:05.913Z,4.00
2022-08-02T15:53:10.575Z,3.20
2022-08-02T15:58:16.804Z,2.17
2022-08-02T16:03:21.207Z,1.88
2022-08-02T16:08:25.942Z,3.40
2022-08-02T16:13:52.637Z,2.55
2022-08-02T16:18:57.421Z,2.47
2022-08-02T16:24:03.398Z,3.92
2022-08-02T16:29:06.636Z,2.05
2022-08-02T16:34:09.960Z,1.30
2022-08-02T16:39:14.811Z,3.35
2022-08-02T16:44:18.117Z,3.25
2022-08-02T16:50:05.557Z,1.48
2022-08-02T16:54:55.343Z,1.70
2022-08-02T16:59:58.758Z,13.50
2022-08-02T17:05:02.179Z,4.82
2022-08-02T17:10:09.164Z,3.10
2022-08-02T17:16:15.927Z,2.58
2022-08-02T17:20:36.553Z,5.53
2022-08-02T17:25:42.448Z,2.85
2022-08-02T17:30:45.679Z,2.45
2022-08-02T17:35:52.189Z,3.30
2022-08-02T17:40:57.387Z,2.72
2022-08-02T17:46:02.028Z,2.15
2022-08-02T17:51:06.058Z,5.38
2022-08-02T17:56:10.683Z,1.73
2022-08-02T18:01:24.136Z,2.10
2022-08-02T18:06:28.040Z,41.85
2022-08-02T18:11:52.942Z,30.35
2022-08-02T18:16:55.763Z,25.85
2022-08-02T18:21:58.850Z,18.55
2022-08-02T18:27:03.289Z,17.13
2022-08-02T18:32:11.795Z,11.57
2022-08-02T18:37:15.436Z,4.55
2022-08-02T18:42:22.441Z,3.80
2022-08-02T18:47:25.569Z,1.48
2022-08-02T18:52:37.833Z,1.65
2022-08-02T18:58:01.783Z,1.60
2022-08-02T19:03:08.111Z,2.45
2022-08-02T19:08:12.015Z,2.00
2022-08-02T19:13:17.638Z,3.47
2022-08-02T19:18:26.956Z,2.00
2022-08-02T19:23:33.511Z,1.80
2022-08-02T19:28:39.288Z,1.55
2022-08-02T19:34:05.773Z,1.98
2022-08-02T19:39:07.044Z,2.95
2022-08-02T19:44:23.454Z,2.28
2022-08-02T19:49:40.560Z,2.17
2022-08-02T19:54:54.668Z,2.83
2022-08-02T20:00:01.559Z,4.93
2022-08-02T20:05:16.115Z,2.13
2022-08-02T20:10:24.757Z,2.90
2022-08-02T20:15:51.718Z,1.70
2022-08-02T20:20:53.814Z,1.40
2022-08-02T20:25:57.113Z,1.50
2022-08-02T20:31:07.085Z,1.52
2022-08-02T20:36:12.123Z,2.47
2022-08-02T20:41:21.387Z,2.88
2022-08-02T20:46:26.635Z,2.72
2022-08-02T20:51:32.556Z,2.10
2022-08-02T20:56:37.526Z,2.15
2022-08-02T21:01:56.827Z,1.73
2022-08-02T21:07:00.267Z,3.15
2022-08-02T21:12:03.753Z,1.75
2022-08-02T21:17:11.246Z,2.08
2022-08-02T21:22:27.474Z,3.17
2022-08-02T21:27:52.924Z,2.00
2022-08-02T21:32:56.928Z,2.90
2022-08-02T21:38:00.199Z,2.13
2022-08-02T21:43:03.457Z,1.90
2022-08-02T21:48:13.593Z,2.30
2022-08-02T21:53:18.906Z,2.85
2022-08-02T21:58:40.337Z,2.05
2022-08-02T22:03:53.106Z,2.08
2022-08-02T22:08:58.967Z,2.17
2022-08-02T22:14:02.102Z,2.83
2022-08-02T22:19:06.840Z,2.65
2022-08-02T22:24:13.005Z,2.40
2022-08-02T22:29:22.737Z,2.20
2022-08-02T22:34:51.344Z,2.67
2022-08-02T22:40:05.933Z,2.75
2022-08-02T22:45:12.973Z,2.83
2022-08-02T22:50:17.477Z,4.82
2022-08-02T22:55:21.372Z,2.28
2022-08-02T23:00:27.060Z,2.08
2022-08-02T23:05:31.999Z,3.03
2022-08-02T23:10:35.131Z,2.03
2022-08-02T23:15:53.704Z,2.28
2022-08-02T23:20:58.980Z,2.92
2022-08-02T23:26:02.011Z,4.15
2022-08-02T23:31:33.237Z,2.10
2022-08-02T23:36:42.163Z,2.50
2022-08-02T23:41:45.303Z,1.98
2022-08-02T23:47:00.389Z,4.35
2022-08-02T23:52:05.673Z,3.05
2022-08-02T23:57:20.806Z,5.05
